Custom file does not exist C:\wdisplay\webfiles\testtags.txt Borgafjälls vädersida - Nearby METAR Reports

Nearby METAR Reports

 

KSJC - San Jose, California, USA
Distance from station: NE 14km
Actualizacin: 24/01/2021 06:53
Few Clouds
Few Clouds
 Viento del SSO
Viento: SSO 7 km/h
Temperatura: 7°C
Wind Chill: 6°C
Roco: 4°C
Humedad: 81%
Barmetro: 1014.9 hPa
Clouds: Few Clouds
Visibility: 16 km
Cloud details: Few Clouds 305 m
2021/01/24 05:53 KSJC 240553Z 20004KT 10SM FEW010 07/04 A2997 RMK AO2 SLP149 T00720044 10128 20072 53003
KNUQ - Moffett Nas/Mtn, California, USA
Distance from station: N 14km
Actualizacin: 24/01/2021 07:30
Despejado
Despejado
 Viento del SSE
Viento: SSE 6 km/h
Temperatura: 8°C
Roco: 5°C
Humedad: 82%
Barmetro: 1014.6 hPa
Clouds: Despejado
Visibility: 16 km
2021/01/24 06:30 KNUQ 240630Z AUTO 16003KT 10SM CLR 08/05 A2996 RMK AO2
 
KPAO - Palo Alto, California, USA
Distance from station: NNO 23km
Actualizacin: 24/01/2021 05:47
NOT Current
Despejado
Despejado
 Viento del SSE
Viento: SSE 6 km/h
Temperatura: 7°C
Roco: 4°C
Humedad: 81%
Barmetro: 1014.9 hPa
Clouds: Despejado
Visibility: 16 km
2021/01/24 04:47 KPAO 240447Z 16003KT 10SM SKC 07/04 A2997 RMK LAST
KRHV - San Jose/Reid, California, USA
Distance from station: ENE 19km
Actualizacin: 24/01/2021 06:50
Despejado
Despejado
 Viento del calm
Viento: Calma
Temperatura: 6°C
Roco: 3°C
Humedad: 81%
Barmetro: 1015.2 hPa
Clouds: Despejado
Visibility: 16 km
2021/01/24 05:50 KRHV 240550Z 00000KT 10SM SKC 06/03 A2998 RMK LAST
 
KOAK - Oakland, California, USA
Distance from station: NNO 50km
Actualizacin: 24/01/2021 06:53
Despejado
Despejado
 Viento del E
Viento: E 9 km/h
Temperatura: 8°C
Wind Chill: 6°C
Roco: 4°C
Humedad: 76%
Barmetro: 1014.9 hPa
Clouds: Despejado
Visibility: 16 km
2021/01/24 05:53 KOAK 240553Z 10005KT 10SM CLR 08/04 A2997 RMK AO2 SLP148 T00830044 10139 20083 53000
KSQL - San Carlos Airpo, California, USA
Distance from station: NO 34km
Actualizacin: 24/01/2021 07:35
Despejado
Despejado
 
Temperatura: 7°C
Roco: 4°C
Humedad: 81%
Barmetro: 1014.9 hPa
Clouds: Despejado
Visibility: 16 km
2021/01/24 06:35 KSQL 240635Z AUTO 10SM CLR 07/04 A2997 RMK AO2
 
KSFO - San Francisco, California, USA
Distance from station: NO 49km
Actualizacin: 24/01/2021 06:56
Despejado
Despejado
 Viento del SO
Viento: SO 9 km/h
Temperatura: 9°C
Wind Chill: 7°C
Roco: 6°C
Humedad: 82%
Barmetro: 1014.6 hPa
Clouds: Despejado
Visibility: 16 km
2021/01/24 05:56 KSFO 240556Z 23005KT 10SM CLR 09/06 A2996 RMK AO2 SLP144 T00890056 10128 20089 55000 $
KE16 - San Martin, California, USA
Distance from station: ESE 43km
Actualizacin: 24/01/2021 07:35
Despejado
Despejado
 Viento del calm
Viento: Calma
Temperatura: 4°C
Roco: 3°C
Humedad: 93%
Barmetro: 1015.9 hPa
Clouds: Despejado
Visibility: 16 km
2021/01/24 06:35 KE16 240635Z AUTO 00000KT 10SM CLR 04/03 A3000 RMK AO2
 
KWVI - Watsonville, California, USA
Distance from station: SSE 44km
Actualizacin: 24/01/2021 06:53
Despejado
Despejado
 Viento del N
Viento: N 7 km/h
Temperatura: 5°C
Wind Chill: 3°C
Roco: 3°C
Humedad: 87%
Barmetro: 1015.2 hPa
Clouds: Despejado
Visibility: 16 km
2021/01/24 05:53 KWVI 240553Z AUTO 35004KT 10SM CLR 05/03 A2998 RMK AO2 SLP154 T00500033 10133 20050 53005
KHAF - Half Moon Bay, California, USA
Distance from station: ONO 50km
Actualizacin: 24/01/2021 07:35
Cubierto
Cubierto
 Viento del calm
Viento: Calma
Temperatura: 5°C
Roco: 5°C
Humedad: 100%
Barmetro: 1015.2 hPa
Clouds: Cubierto
Visibility: 14 km
Cloud details: Cubierto 396 m
2021/01/24 06:35 KHAF 240635Z AUTO 00000KT 9SM OVC013 05/05 A2998 RMK AO2
 
KHWD - Hayward, California, USA
Distance from station: N 44km
Actualizacin: 24/01/2021 06:54
Despejado
Despejado
 Viento del ENE
Viento: ENE 6 km/h
Temperatura: 7°C
Roco: 4°C
Humedad: 81%
Barmetro: 1014.6 hPa
Clouds: Despejado
Visibility: 16 km
2021/01/24 05:54 KHWD 240554Z AUTO 07003KT 10SM CLR 07/04 A2996 RMK AO2 SLP156 T00670039 10122 20061 53001
KLVK - Livermore, California, USA
Distance from station: NNE 51km
Actualizacin: 24/01/2021 06:53
Despejado
Despejado
 Viento del calm
Viento: Calma
Temperatura: 5°C
Roco: 3°C
Humedad: 87%
Barmetro: 1014.6 hPa
Clouds: Despejado
Visibility: 16 km
2021/01/24 05:53 KLVK 240553Z AUTO 00000KT 10SM CLR 05/03 A2996 RMK AO2 SLP144 T00500033 10139 20044 51003